ADDS METAR Data INFO
IDs: Format: Raw Decoded Include TAF

Data at: 2315 UTC 15 Jul 2018

KDRI 152255Z AUTO 19005KT 10SM CLR 33/22 A3000 RMK AO2 T03300223
KDRI 152235Z AUTO 22006KT 10SM CLR 33/22 A3000 RMK AO2 LTG DSNT S T03310221
KDRI 152215Z AUTO 22009KT 10SM SCT047 33/22 A3001 RMK AO2 T03310223
KDRI 152155Z AUTO 20008KT 10SM SCT047 BKN065 34/22 A3001 RMK AO2 T03370215
KDRI 152135Z AUTO 24005KT 10SM SCT049 SCT065 SCT075 33/21 A3001 RMK AO2 T03300213
KDRI 152115Z AUTO 23005KT 10SM CLR 34/21 A3002 RMK AO2 T03400211
KDRI 152055Z AUTO 25004KT 10SM SCT045 34/20 A3002 RMK AO2 T03370204
KDRI 152035Z AUTO 27006KT 10SM SCT045 SCT050 33/21 A3003 RMK AO2 T03340213
KDRI 152015Z AUTO 25004KT 10SM SCT045 33/21 A3004 RMK AO2 LTG DSNT SE T03300208
KDRI 151955Z AUTO 22003KT 10SM SCT043 33/22 A3004 RMK AO2 T03290215
KDRI 151935Z AUTO 24003KT 10SM SCT043 33/21 A3005 RMK AO2 T03250205
KDRI 151915Z AUTO 22006KT 10SM SCT043 33/21 A3006 RMK AO2 T03280212
KDRI 151855Z AUTO 24006KT 10SM SCT041 33/21 A3007 RMK AO2 T03250210
KDRI 151835Z AUTO 22003KT 10SM SCT039 SCT048 32/21 A3008 RMK AO2 T03240208
KDRI 151815Z AUTO 26004KT 10SM SCT039 SCT048 32/21 A3008 RMK AO2 T03240212
KDRI 151755Z AUTO 27003KT 10SM SCT037 SCT042 32/22 A3009 RMK AO2 T03180219 10321 20243
KDRI 151735Z AUTO 21005KT 10SM SCT032 SCT039 SCT060 32/21 A3009 RMK AO2 T03180214
KDRI 151715Z AUTO 26006KT 10SM SCT032 SCT039 BKN060 31/22 A3009 RMK AO2 LTG DSNT SE T03130222
KDRI 151655Z AUTO 26007KT 10SM SCT032 31/22 A3009 RMK AO2 T03130220
KDRI 151635Z AUTO 21005KT 10SM SCT025 SCT031 31/22 A3010 RMK AO2 T03120223
KDRI 151615Z AUTO 24006KT 10SM BKN025 BKN031 30/23 A3010 RMK AO2 LTG DSNT S T03020225
KDRI 151555Z AUTO 23006KT 10SM SCT023 30/23 A3010 RMK AO2 T03010225
KDRI 151535Z AUTO 23005KT 10SM SCT021 30/23 A3009 RMK AO2 T03000230
KDRI 151515Z AUTO 23006KT 10SM SCT018 SCT024 30/25 A3010 RMK AO2 T02960245
KDRI 151455Z AUTO 27006KT 10SM SCT015 29/25 A3010 RMK AO2 T02900250
KDRI 151435Z AUTO 27008KT 10SM SCT015 29/26 A3010 RMK AO2 T02870263
KDRI 151415Z AUTO 26005KT 10SM SCT011 28/27 A3010 RMK AO2 T02800268
KDRI 151355Z AUTO 26006KT 10SM CLR 28/27 A3010 RMK AO2 T02770270
KDRI 151335Z AUTO 28005KT 7SM CLR 27/26 A3009 RMK AO2 T02700262
KDRI 151315Z AUTO 27003KT 10SM CLR 26/25 A3009 RMK AO2 T02620254
KDRI 151255Z AUTO 00000KT 10SM CLR 26/25 A3009 RMK AO2 T02550247
KDRI 151235Z AUTO 00000KT 10SM CLR 25/24 A3008 RMK AO2 T02480240
KDRI 151215Z AUTO 00000KT 10SM CLR 24/24 A3008 RMK AO2 T02440236
KDRI 151155Z AUTO 00000KT 10SM CLR 24/24 A3008 RMK AO2 T02430235 10260 20242
KDRI 151135Z AUTO 00000KT 10SM CLR 24/24 A3007 RMK AO2 T02420235
KDRI 151115Z AUTO 00000KT 10SM CLR 25/24 A3007 RMK AO2 T02450236
KDRI 151055Z AUTO 00000KT 10SM CLR 25/24 A3007 RMK AO2 LTG DSNT S T02450237
KDRI 151035Z AUTO 00000KT 10SM CLR 25/24 A3007 RMK AO2 T02450237
KDRI 151015Z AUTO 00000KT 10SM CLR 25/24 A3007 RMK AO2 T02450237
KDRI 150955Z AUTO 00000KT 10SM CLR 25/24 A3007 RMK AO2 T02450237
KDRI 150935Z AUTO 00000KT 10SM CLR 25/24 A3007 RMK AO2 T02500242
KDRI 150915Z AUTO 00000KT 10SM CLR 25/24 A3007 RMK AO2 T02500241
KDRI 150855Z AUTO 00000KT 10SM CLR 25/24 A3006 RMK AO2 T02490240
KDRI 150835Z AUTO 00000KT 10SM CLR 25/24 A3006 RMK AO2 T02500242
KDRI 150815Z AUTO 00000KT 10SM CLR 25/24 A3006 RMK AO2 T02510243
KDRI 150755Z AUTO 00000KT 10SM CLR 25/25 A3006 RMK AO2 T02530245
KDRI 150735Z AUTO 00000KT 10SM CLR 25/25 A3007 RMK AO2 T02530245
KDRI 150715Z AUTO 00000KT 10SM CLR 26/25 A3007 RMK AO2 T02550246
KDRI 150655Z AUTO 21003KT 10SM CLR 25/25 A3008 RMK AO2 T02540246
KDRI 150635Z AUTO 19003KT 10SM CLR 26/25 A3008 RMK AO2 T02560248
KDRI 150615Z AUTO 19003KT 10SM CLR 26/25 A3008 RMK AO2 T02600251
KDRI 150555Z AUTO 19004KT 10SM CLR 26/25 A3007 RMK AO2 T02580250 10328 20258 403350233
KDRI 150535Z AUTO 20004KT 10SM CLR 26/25 A3008 RMK AO2 T02600252
KDRI 150515Z AUTO 20004KT 10SM CLR 26/25 A3008 RMK AO2 T02620254
KDRI 150455Z AUTO 21004KT 10SM CLR 27/25 A3008 RMK AO2 T02650247
KDRI 150435Z AUTO 21004KT 10SM CLR 27/25 A3008 RMK AO2 T02650250
KDRI 150415Z AUTO 19003KT 10SM CLR 27/25 A3007 RMK AO2 T02660249
KDRI 150355Z AUTO 19003KT 10SM CLR 27/25 A3006 RMK AO2 T02700246
KDRI 150335Z AUTO 18004KT 10SM CLR 27/24 A3005 RMK AO2 T02720243
KDRI 150315Z AUTO 19003KT 10SM CLR 28/24 A3005 RMK AO2 T02750244
KDRI 150255Z AUTO 18004KT 10SM CLR 28/24 A3005 RMK AO2 T02780239
KDRI 150235Z AUTO 19004KT 10SM CLR 28/24 A3004 RMK AO2 T02780241
KDRI 150215Z AUTO 20004KT 10SM CLR 28/24 A3004 RMK AO2 T02820237
KDRI 150155Z AUTO 19004KT 10SM CLR 29/24 A3004 RMK AO2 T02870235
KDRI 150135Z AUTO 20004KT 10SM CLR 29/23 A3003 RMK AO2 T02930232
KDRI 150115Z AUTO 20006KT 10SM CLR 30/23 A3003 RMK AO2 T03020231
KDRI 150055Z AUTO 19004KT 10SM CLR 31/23 A3003 RMK AO2 T03120226
KDRI 150035Z AUTO 22005KT 10SM CLR 32/22 A3003 RMK AO2 T03220220
KDRI 150015Z AUTO 21004KT 10SM CLR 33/22 A3002 RMK AO2 T03260217
KDRI 142355Z AUTO 00000KT 10SM CLR 33/21 A3001 RMK AO2 T03290212 10335 20317
KDRI 142335Z AUTO 23004KT 10SM CLR 33/21 A3002 RMK AO2 T03290213
KDRI 142315Z AUTO 20004KT 10SM SCT045 33/21 A3003 RMK AO2 T03290212
KDRI 142255Z AUTO 24006KT 10SM CLR 33/21 A3003 RMK AO2 T03320213
KDRI 142235Z AUTO 25007KT 10SM CLR 33/21 A3004 RMK AO2 T03330211
KDRI 142215Z AUTO 20004KT 10SM CLR 33/21 A3004 RMK AO2 T03330211
KDRI 142155Z AUTO 21005KT 10SM SCT045 SCT070 33/21 A3005 RMK AO2 T03320214
KDRI 142135Z AUTO 21004KT 10SM CLR 33/21 A3006 RMK AO2 T03330211
KDRI 142115Z AUTO 22005KT 10SM CLR 33/22 A3007 RMK AO2 T03320216
KDRI 142055Z AUTO 21004KT 10SM SCT055 SCT070 33/21 A3007 RMK AO2 T03250213
KDRI 142035Z AUTO 22005KT 10SM SCT047 SCT055 SCT065 33/21 A3007 RMK AO2 LTG DSNT S T03330214
KDRI 142015Z AUTO 00000KT 10SM BKN045 BKN055 BKN065 32/21 A3008 RMK AO2 T03240210
KDRI 141955Z AUTO 19003KT 10SM BKN045 33/21 A3009 RMK AO2 T03290212
KDRI 141935Z AUTO 18005KT 10SM SCT041 SCT055 32/21 A3010 RMK AO2 T03240211
KDRI 141915Z AUTO 24004KT 10SM SCT041 SCT050 33/22 A3010 RMK AO2 T03270215
KDRI 141855Z AUTO 00000KT 10SM SCT041 BKN050 32/21 A3011 RMK AO2 T03210213
KDRI 141835Z AUTO 28004KT 10SM SCT041 32/21 A3012 RMK AO2 T03230213
KDRI 141815Z AUTO 20003KT 10SM SCT039 SCT048 32/22 A3013 RMK AO2 T03180218
KDRI 141755Z AUTO 22004KT 10SM SCT033 BKN039 32/21 A3013 RMK AO2 T03200214 10321 20233
KDRI 141735Z AUTO 23003KT 10SM SCT035 31/21 A3014 RMK AO2 T03100214
KDRI 141715Z AUTO 21003KT 10SM SCT034 31/21 A3014 RMK AO2 T03080213
KDRI 141655Z AUTO 26004KT 10SM SCT028 SCT034 31/22 A3014 RMK AO2 T03140224
KDRI 141635Z AUTO 26005KT 10SM SCT028 SCT034 31/22 A3014 RMK AO2 T03060223
KDRI 141615Z AUTO 22004KT 10SM SCT026 SCT035 30/22 A3014 RMK AO2 T03040223
KDRI 141555Z AUTO 23004KT 10SM SCT022 30/23 A3014 RMK AO2 T02970226
KDRI 141535Z AUTO 29007KT 10SM SCT020 30/23 A3014 RMK AO2 T03010231
KDRI 141515Z AUTO 23003KT 10SM SCT018 29/23 A3013 RMK AO2 T02910234
KDRI 141455Z AUTO 25006KT 10SM SCT016 29/26 A3014 RMK AO2 T02890255
KDRI 141435Z AUTO 30006KT 10SM SCT014 28/26 A3014 RMK AO2 T02840261
KDRI 141415Z AUTO 28005KT 10SM CLR 28/26 A3013 RMK AO2 T02830263
KDRI 141355Z AUTO 27006KT 10SM CLR 28/27 A3014 RMK AO2 T02760267
KDRI 141335Z AUTO 28005KT 10SM CLR 27/26 A3013 RMK AO2 T02700261
KDRI 141315Z AUTO 29004KT 10SM CLR 26/26 A3013 RMK AO2 T02630255
KDRI 141255Z AUTO 00000KT 10SM CLR 25/25 A3012 RMK AO2 T02540246
KDRI 141235Z AUTO 00000KT 10SM CLR 25/24 A3012 RMK AO2 T02470239
KDRI 141215Z AUTO 00000KT 10SM CLR 24/23 A3012 RMK AO2 T02370229
KDRI 141155Z AUTO 00000KT 7SM CLR 24/23 A3012 RMK AO2 T02350226 10256 20235
KDRI 141135Z AUTO 00000KT 7SM CLR 24/23 A3012 RMK AO2 T02380230